»·PEaware :: N895PW KSNA-KLAX

N895PW :: KSNA-KLAX

FLIGHT INFORMATION

Flight Status: Arrived
Operator: Privately registered:
United States
More flights under this callsign
Pilot: Robert C. (26285)
Aircraft: AERMACCHI WARRIOR
(F260)
More flights by this aircraft type
Origin: KSNA John Wayne-Orange Co
United States
Destination: KLAX Los Angeles Intl
United States
More flights between these airports :: More routes between these airports
Route: +
File this flight plan on PilotEdge
Remarks: Preperation for CAT-11 Rating
Altitude:
(Current/Filed)
3,000ft
Speed:
(Current/Filed)
130kts
Departed: 03-Oct-19 11:37 AM
Arrived: 03-Oct-19 11:54 AM
Distance/Time
Traveled:
32nm/0:17
Distance/Time
To Go:
Arrived

Flight Plot

Page will automatically refresh every two minutes.


Map Options




Map Legend


Flown Route
Filed Route
Departure Airport
Arrival Airport
Navaid (VOR, NDB)
Fix

Horizontal Profiles

Position Reports

Time Latitude Longitude Heading Altitude Ground
Speed
03-Oct-19 10:49 33.666521 -117.873129 248 59ft 0kts
03-Oct-19 10:50 33.666521 -117.873129 248 59ft 0kts
03-Oct-19 10:51 33.666521 -117.873129 248 59ft 0kts
03-Oct-19 10:52 33.666521 -117.873129 248 59ft 0kts
03-Oct-19 10:53 33.666521 -117.873129 248 59ft 0kts
03-Oct-19 10:54 33.666521 -117.873129 248 59ft 0kts
03-Oct-19 10:55 33.666521 -117.873129 248 59ft 0kts
03-Oct-19 10:56 33.666521 -117.873129 248 59ft 0kts
03-Oct-19 10:57 33.666521 -117.873129 248 59ft 0kts
03-Oct-19 10:58 33.666521 -117.873129 248 59ft 0kts
03-Oct-19 10:59 33.666521 -117.873129 248 59ft 0kts
03-Oct-19 11:00 33.666521 -117.873129 248 59ft 0kts
03-Oct-19 11:01 33.666521 -117.873129 248 59ft 0kts
03-Oct-19 11:02 33.666521 -117.873129 248 59ft 0kts
03-Oct-19 11:03 33.666521 -117.873129 248 59ft 0kts
03-Oct-19 11:04 33.666521 -117.873129 248 59ft 0kts
03-Oct-19 11:05 33.666521 -117.873129 248 59ft 0kts
03-Oct-19 11:06 33.666521 -117.873129 248 59ft 0kts
03-Oct-19 11:07 33.666521 -117.873129 248 59ft 0kts
03-Oct-19 11:08 33.666521 -117.873129 248 59ft 0kts
03-Oct-19 11:09 33.666521 -117.873129 248 59ft 0kts
03-Oct-19 11:10 33.666521 -117.873129 248 59ft 0kts
03-Oct-19 11:11 33.666521 -117.873129 248 59ft 0kts
03-Oct-19 11:12 33.666521 -117.873129 247 59ft 0kts
03-Oct-19 11:13 33.666521 -117.873129 247 59ft 0kts
03-Oct-19 11:14 33.666521 -117.873129 247 59ft 0kts
03-Oct-19 11:15 33.666521 -117.873129 247 59ft 0kts
03-Oct-19 11:16 33.666521 -117.873129 247 59ft 0kts
03-Oct-19 11:17 33.666521 -117.873129 247 59ft 0kts
03-Oct-19 11:18 33.666521 -117.873129 247 59ft 0kts
03-Oct-19 11:19 33.666521 -117.873129 247 59ft 0kts
03-Oct-19 11:20 33.666521 -117.873129 247 59ft 0kts
03-Oct-19 11:21 33.666521 -117.873129 247 59ft 0kts
03-Oct-19 11:22 33.666521 -117.873129 247 59ft 0kts
03-Oct-19 11:23 33.666521 -117.873129 247 59ft 0kts
03-Oct-19 11:24 33.666521 -117.873129 247 59ft 0kts
03-Oct-19 11:25 33.666521 -117.873129 247 59ft 0kts
03-Oct-19 11:26 33.666516 -117.873142 246 59ft 1kts
03-Oct-19 11:27 33.668215 -117.871866 41 59ft 8kts
03-Oct-19 11:28 33.670956 -117.869036 39 59ft 14kts
03-Oct-19 11:29 33.673593 -117.866959 322 59ft 7kts
03-Oct-19 11:30 33.676136 -117.865807 28 59ft 12kts
03-Oct-19 11:31 33.679859 -117.863460 359 59ft 9kts
03-Oct-19 11:32 33.679977 -117.863551 289 59ft 0kts
03-Oct-19 11:33 33.679984 -117.863688 293 59ft 0kts
03-Oct-19 11:34 33.679984 -117.863688 293 59ft 0kts
03-Oct-19 11:35 33.679984 -117.863688 293 59ft 0kts
03-Oct-19 11:36 33.671512 -117.869653 204 222ft 95kts
03-Oct-19 11:37 33.651900 -117.892441 277 1204ft 112kts
03-Oct-19 11:38 33.679221 -117.910442 341 2158ft 120kts
03-Oct-19 11:39 33.713166 -117.922966 341 2402ft 131kts
03-Oct-19 11:40 33.747829 -117.935843 341 2402ft 130kts
03-Oct-19 11:41 33.782069 -117.949488 328 2404ft 129kts
03-Oct-19 11:42 33.802913 -117.981869 276 3015ft 129kts
03-Oct-19 11:43 33.804550 -118.028191 272 3015ft 148kts
03-Oct-19 11:44 33.810900 -118.076111 291 3001ft 143kts
03-Oct-19 11:45 33.825798 -118.119828 295 3001ft 136kts
03-Oct-19 11:46 33.842104 -118.160508 296 3005ft 134kts
03-Oct-19 11:47 33.858430 -118.200766 296 3006ft 133kts
03-Oct-19 11:48 33.874727 -118.240998 296 3008ft 133kts
03-Oct-19 11:49 33.891306 -118.281914 296 2729ft 143kts
03-Oct-19 11:50 33.914510 -118.322157 328 1927ft 153kts
03-Oct-19 11:51 33.940427 -118.352121 269 995ft 97kts
03-Oct-19 11:52 33.937584 -118.380337 263 175ft 80kts
03-Oct-19 11:53 33.935406 -118.393676 176 128ft 0kts
03-Oct-19 11:54 33.935406 -118.393676 175 128ft 0kts
03-Oct-19 11:56 33.935406 -118.393676 175 128ft 0kts
03-Oct-19 11:57 33.934945 -118.394177 264 128ft 10kts
03-Oct-19 11:58 33.934637 -118.397311 263 128ft 16kts
03-Oct-19 11:59 33.934048 -118.403034 261 128ft 19kts
03-Oct-19 12:00 33.933319 -118.410136 263 128ft 22kts
03-Oct-19 12:01 33.932572 -118.417298 267 128ft 15kts
03-Oct-19 12:02 33.935384 -118.419119 353 128ft 26kts
03-Oct-19 12:03 33.936621 -118.421136 261 128ft 13kts
03-Oct-19 12:04 33.936168 -118.425993 276 128ft 13kts
03-Oct-19 12:05 33.940049 -118.426836 350 128ft 14kts
03-Oct-19 12:06 33.941883 -118.428299 191 128ft 8kts
03-Oct-19 12:07 33.941711 -118.428248 38 128ft 0kts
03-Oct-19 12:08 33.941711 -118.428248 38 128ft 0kts

Navigation Log

Ident Type
Flight plan parsing failed, navigation log unavailable